Euskara    
Meteorología y climatología de Navarra
Datos de la estación - Meteo Navarra

Estación de Carrascal GN

Altitud 568 m.


Datos desde el 16/09/2020 hasta el 17/09/2020 en horario solar
Los datos son PROVISIONALES

Anterior Página 1 de 1 Siguiente Descargar: Formato para Excel 2000 o superior   Formato csv   Formato para OpenOffice Calc
Fecha Temperatura Humedad relativa Radiación global Insolación Precipitación Vel. viento 10 m Vel. viento 10 m Dir. viento 10 m
°C % W/m² s l/m² m/s km/h °
16/09/2020 0:00 20.0 69 0.0 0 0.0 5.2 18.8 47
16/09/2020 0:10 20.2 68 0.0 0 0.0 5.4 19.6 46
16/09/2020 0:20 19.8 69 0.0 0 0.0 5.2 18.8 48
16/09/2020 0:30 19.6 69 0.0 0 0.0 4.9 17.8 49
16/09/2020 0:40 18.7 70 0.0 0 0.0 4.9 17.7 49
16/09/2020 0:50 19.0 69 0.0 0 0.0 5.0 17.8 45
16/09/2020 1:00 19.2 68 0.0 0 0.0 4.7 16.8 43
16/09/2020 1:10 18.5 69 0.0 0 0.0 4.6 16.6 43
16/09/2020 1:20 18.4 70 0.0 0 0.0 5.3 19.2 48
16/09/2020 1:30 18.3 70 0.0 0 0.0 5.0 18.1 47
16/09/2020 1:40 18.3 69 0.0 0 0.0 4.8 17.4 42
16/09/2020 1:50 18.2 70 0.0 0 0.0 5.0 18.0 47
16/09/2020 2:00 18.0 71 0.0 0 0.0 5.0 18.1 46
16/09/2020 2:10 18.0 71 0.0 0 0.0 5.3 19.0 44
16/09/2020 2:20 17.9 71 0.0 0 0.0 5.1 18.5 48
16/09/2020 2:30 17.7 72 0.0 0 0.0 4.7 16.9 49
16/09/2020 2:40 17.7 72 0.0 0 0.0 4.6 16.6 45
16/09/2020 2:50 17.6 71 0.0 0 0.0 4.7 16.8 44
16/09/2020 3:00 17.6 72 0.0 0 0.0 4.0 14.5 43
16/09/2020 3:10 17.2 73 0.0 0 0.0 3.9 14.2 47
16/09/2020 3:20 17.1 74 0.0 0 0.0 4.1 14.8 49
16/09/2020 3:30 16.8 74 0.0 0 0.0 4.0 14.3 47
16/09/2020 3:40 16.8 74 0.0 0 0.0 3.4 12.2 45
16/09/2020 3:50 16.3 75 0.0 0 0.0 3.2 11.5 47
16/09/2020 4:00 16.1 76 0.0 0 0.0 3.2 11.5 49
16/09/2020 4:10 16.1 76 0.0 0 0.0 3.1 11.1 52
16/09/2020 4:20 16.1 76 0.0 0 0.0 2.9 10.3 47
16/09/2020 4:30 15.8 77 0.0 0 0.0 2.9 10.3 44
16/09/2020 4:40 15.8 77 0.0 0 0.0 2.9 10.5 49
16/09/2020 4:50 15.8 77 0.0 0 0.0 2.9 10.3 51
16/09/2020 5:00 15.7 77 0.0 0 0.0 2.5 8.9 47
16/09/2020 5:10 15.8 77 0.0 0 0.0 2.4 8.6 47
16/09/2020 5:20 15.4 78 0.0 0 0.0 3.1 11.2 49
16/09/2020 5:30 15.2 78 0.0 0 0.0 2.9 10.5 46
16/09/2020 5:40 15.1 79 0.0 0 0.0 3.1 11.0 50
16/09/2020 5:50 15.3 76 0.0 0 0.0 3.0 10.9 43
16/09/2020 6:00 15.1 76 1.1 0 0.0 3.0 10.9 41
16/09/2020 6:10 15.2 78 24.7 0 0.0 3.2 11.5 49
16/09/2020 6:20 15.3 77 33.4 70 0.0 3.2 11.6 39
16/09/2020 6:30 15.4 77 41.9 0 0.0 3.1 11.2 37
16/09/2020 6:40 15.5 77 49.3 0 0.0 3.4 12.2 38
16/09/2020 6:50 16.2 75 70.6 102 0.0 3.2 11.4 35
16/09/2020 7:00 16.4 74 152.6 600 0.0 3.1 11.3 39
16/09/2020 7:10 16.9 73 189.5 600 0.0 3.4 12.2 42
16/09/2020 7:20 17.7 70 194.0 600 0.0 3.4 12.1 45
16/09/2020 7:30 18.2 69 251.3 600 0.0 3.1 11.1 59
16/09/2020 7:40 18.8 67 270.1 600 0.0 2.6 9.2 47
16/09/2020 7:50 19.5 64 308.4 600 0.0 2.7 9.8 48
16/09/2020 8:00 20.0 62 323.6 600 0.0 2.7 9.6 48
16/09/2020 8:10 20.7 60 340.7 600 0.0 2.8 10.0 52
16/09/2020 8:20 21.0 58 373.3 600 0.0 2.6 9.4 44
16/09/2020 8:30 21.4 56 412.7 600 0.0 2.2 7.8 50
16/09/2020 8:40 22.4 54 435.2 600 0.0 2.1 7.7 40
16/09/2020 8:50 22.8 52 459.9 600 0.0 2.5 9.0 47
16/09/2020 9:00 23.0 52 487.6 600 0.0 2.4 8.7 54
16/09/2020 9:10 23.5 51 504.8 600 0.0 3.1 11.2 52
16/09/2020 9:20 23.5 50 531.1 600 0.0 3.0 10.8 50
16/09/2020 9:30 24.1 49 562.6 600 0.0 3.0 10.7 53
16/09/2020 9:40 24.5 48 583.9 600 0.0 3.0 10.6 55
16/09/2020 9:50 24.8 47 607.6 600 0.0 3.3 11.9 49
16/09/2020 10:00 25.1 46 630.4 600 0.0 4.0 14.4 56
16/09/2020 10:10 25.2 46 650.9 600 0.0 4.0 14.5 59
16/09/2020 10:20 25.6 45 671.1 600 0.0 3.4 12.4 56
16/09/2020 10:30 26.2 44 689.3 600 0.0 3.3 11.9 58
16/09/2020 10:40 26.4 43 703.3 600 0.0 2.2 7.9 64
16/09/2020 10:50 27.3 42 714.4 600 0.0 1.7 6.3 13
16/09/2020 11:00 27.6 41 722.7 600 0.0 0.8 2.8 29
16/09/2020 11:10 28.9 38 730.8 600 0.0 1.2 4.5 132
16/09/2020 11:20 29.8 37 738.9 600 0.0 2.6 9.2 192
16/09/2020 11:30 29.6 36 747.5 600 0.0 1.6 5.7 238
16/09/2020 11:40 28.7 38 757.7 600 0.0 2.1 7.5 274
16/09/2020 11:50 29.2 36 752.9 600 0.0 2.7 9.9 267
16/09/2020 12:00 29.4 35 759.2 600 0.0 3.1 11.3 259
16/09/2020 12:10 30.3 33 755.0 600 0.0 3.3 12.0 256
16/09/2020 12:20 30.6 33 750.2 600 0.0 3.1 11.0 255
16/09/2020 12:30 30.2 33 752.0 600 0.0 2.5 8.9 241
16/09/2020 12:40 31.8 29 744.7 600 0.0 4.0 14.3 197
16/09/2020 12:50 32.5 25 721.1 600 0.0 1.8 6.3 201
16/09/2020 13:00 32.1 28 717.1 600 0.0 3.8 13.6 227
16/09/2020 13:10 32.0 27 712.8 600 0.0 3.4 12.3 203
16/09/2020 13:20 32.7 25 709.0 600 0.0 4.8 17.2 212
16/09/2020 13:30 32.5 24 687.9 600 0.0 4.6 16.6 193
16/09/2020 13:40 32.8 24 682.6 600 0.0 2.7 9.9 180
16/09/2020 13:50 33.1 24 661.2 600 0.0 3.8 13.5 194
16/09/2020 14:00 32.7 24 605.6 600 0.0 2.8 10.1 194
16/09/2020 14:10 31.9 24 642.4 600 0.0 3.4 12.2 195
16/09/2020 14:20 33.3 21 627.9 600 0.0 5.2 18.7 208
16/09/2020 14:30 33.0 21 572.3 600 0.0 3.6 13.0 230
16/09/2020 14:40 32.4 21 522.3 600 0.0 4.4 16.0 245
16/09/2020 14:50 32.2 21 513.8 600 0.0 2.7 9.7 260
16/09/2020 15:00 31.2 22 421.6 600 0.0 2.2 7.9 283
16/09/2020 15:10 30.8 23 283.3 252 0.0 2.3 8.1 297
16/09/2020 15:20 30.5 23 505.9 600 0.0 2.4 8.6 355
16/09/2020 15:30 31.3 22 392.3 600 0.0 2.2 8.0 271
16/09/2020 15:40 30.6 23 212.0 34 0.0 1.9 6.8 250
16/09/2020 15:50 31.1 23 217.9 4 0.0 1.4 5.1 244
16/09/2020 16:00 30.9 24 241.0 500 0.0 1.3 4.6 342
16/09/2020 16:10 30.1 27 274.0 600 0.0 1.7 6.2 7
16/09/2020 16:20 30.0 27 292.0 600 0.0 0.6 2.0 34
16/09/2020 16:30 30.3 27 283.6 600 0.0 2.6 9.3 359
16/09/2020 16:40 29.9 27 226.2 600 0.0 0.7 2.6 106
16/09/2020 16:50 30.9 26 175.7 600 0.0 1.3 4.6 199
16/09/2020 17:00 30.0 31 169.9 600 0.0 4.7 16.8 359
16/09/2020 17:10 29.0 36 121.4 600 0.0 6.0 21.4 27
16/09/2020 17:20 28.8 38 79.0 178 0.0 5.7 20.4 34
16/09/2020 17:30 28.5 38 61.1 52 0.0 6.0 21.7 38
16/09/2020 17:40 28.1 38 41.4 0 0.0 5.6 20.0 30
16/09/2020 17:50 27.9 39 36.1 350 0.0 5.7 20.4 32
16/09/2020 18:00 27.6 39 21.8 28 0.0 5.6 20.1 30
16/09/2020 18:10 27.1 40 0.0 0 0.0 5.2 18.8 28
16/09/2020 18:20 26.9 40 0.0 0 0.0 5.6 20.0 20
16/09/2020 18:30 26.3 41 0.0 0 0.0 5.5 19.9 17
16/09/2020 18:40 26.0 43 0.0 0 0.0 5.5 19.8 19
16/09/2020 18:50 25.8 43 0.0 0 0.0 5.7 20.6 16
16/09/2020 19:00 25.8 43 0.0 0 0.0 6.0 21.7 16
16/09/2020 19:10 25.6 43 0.0 0 0.0 5.6 20.3 26
16/09/2020 19:20 25.4 44 0.0 0 0.0 5.5 19.9 33
16/09/2020 19:30 25.0 45 0.0 0 0.0 5.3 19.0 48
16/09/2020 19:40 25.0 45 0.0 0 0.0 6.0 21.6 40
16/09/2020 19:50 24.9 45 0.0 0 0.0 5.5 19.8 36
16/09/2020 20:00 24.6 46 0.0 0 0.0 5.4 19.6 41
16/09/2020 20:10 24.1 47 0.0 0 0.0 6.0 21.4 45
16/09/2020 20:20 24.0 47 0.0 0 0.0 5.9 21.3 41
16/09/2020 20:30 24.1 46 0.0 0 0.0 5.3 19.0 37
16/09/2020 20:40 23.8 48 0.0 0 0.0 5.1 18.2 42
16/09/2020 20:50 23.2 49 0.0 0 0.0 5.2 18.7 45
16/09/2020 21:00 23.2 49 0.0 0 0.0 5.2 18.6 39
16/09/2020 21:10 23.1 49 0.0 0 0.0 5.1 18.2 39
16/09/2020 21:20 22.7 50 0.0 0 0.0 5.4 19.5 46
16/09/2020 21:30 22.1 51 0.0 0 0.0 5.2 18.8 52
16/09/2020 21:40 22.1 52 0.0 0 0.0 5.3 19.1 49
16/09/2020 21:50 21.9 52 0.0 0 0.0 5.3 19.2 50
16/09/2020 22:00 21.9 52 0.0 0 0.0 5.4 19.4 46
16/09/2020 22:10 22.3 52 0.0 0 0.0 5.5 19.7 43
16/09/2020 22:20 21.9 52 0.0 0 0.0 5.3 18.9 42
16/09/2020 22:30 21.9 52 0.0 0 0.0 5.2 18.9 42
16/09/2020 22:40 21.8 52 0.0 0 0.0 5.4 19.4 43
16/09/2020 22:50 21.6 53 0.0 0 0.0 5.3 19.2 42
16/09/2020 23:00 21.5 54 0.0 0 0.0 5.6 20.2 42
16/09/2020 23:10 20.7 56 0.0 0 0.0 5.3 18.9 47
16/09/2020 23:20 20.1 58 0.0 0 0.0 4.7 16.8 52
16/09/2020 23:30 19.9 58 0.0 0 0.0 4.1 14.9 42
16/09/2020 23:40 20.7 56 0.0 0 0.0 4.4 16.0 25
16/09/2020 23:50 21.2 54 0.0 0 0.0 3.6 12.9 40
Anterior Página 1 de 1 Siguiente

NOTA: Tipo de datos según el color:
   - Valores diarios o 10 minutos correctos
   - Valores diarios calculados a partir de un número de datos 10 minutos menor que 144 y mayor que 120, o de un número de datos semihorarios menor que 48 y mayor que 40 (caso de las estaciones de INTIA Y Ministerio)
   - Valores diez minutos estimados


Contacto        Enlaces        Aviso legal